KQJJ/QJJ METAR and TAF weather

Enter ICAO airport designator
Station Type Date Time Source
KQJJ METAR 2008/08/06 18:55 UTC NOAA

KQJJ 061855Z AUTO VRB03KT 5SM SCT003 BKN005 OVC007 15/13 A3001 RMK AO2 SLP162


Station Type Date Time Source
KQJJ Decoded METAR 2008/08/06 18:55 UTC NOAA

Station name not available
Aug 06, 2008 - 02:55 PM EDT / 2008.08.06 1855 UTC
Wind: Variable at 3 MPH (3 KT):0
Visibility: 5 mile(s):0
Sky conditions: overcast
Temperature: 59 F (15 C)
Dew Point: 55 F (13 C)
Relative Humidity: 87%
Pressure (altimeter): 30.01 in. Hg (1016 hPa)
ob: KQJJ 061855Z AUTO VRB03KT 5SM SCT003 BKN005 OVC007 15/13 A3001 RMK AO2 SLP162
cycle: 19

Station Type Date Time Source
KQJJ TAF 2008/09/05 11:12 UTC NOAA

TAF KQJJ 051111 18010KT 9999 FEW100 QNH2995INS
BECMG 1718 VRB06KT 9999 FEW100 QNH2997INS
TEMPO 0307 3200 BR T31/12Z T10/04Z


Example: see airport list